Time;durP1;ratioP1;P1;durP2;ratioP2;P2;SDS_P1;SDS_P2;PMS_P1;PMS_P2;Temp;Humidity;BMP_temperature;BMP_pressure;BME280_temperature;BME280_humidity;BME280_pressure;Samples;Min_cycle;Max_cycle;Signal;HPM_P1;HPM_P2
2022/01/30 00:02:03;;;;;;;24.95;5.15;;;;;;;7.20;100.00;102613.59;5197409;28;20056;-71
2022/01/30 00:04:34;;;;;;;22.15;4.63;;;;;;;7.19;100.00;102621.44;5215677;28;20147;-71
2022/01/30 00:07:06;;;;;;;21.50;4.25;;;;;;;7.18;100.00;102628.41;5213748;28;20045;-71
2022/01/30 00:09:37;;;;;;;23.35;4.72;;;;;;;7.12;100.00;102633.03;5214687;28;20091;-70
2022/01/30 00:12:09;;;;;;;22.70;4.53;;;;;;;7.05;100.00;102645.50;5212653;28;20113;-71
2022/01/30 00:14:40;;;;;;;19.65;4.28;;;;;;;7.01;100.00;102644.78;5215904;28;20032;-71
2022/01/30 00:17:19;;;;;;;26.65;5.63;;;;;;;7.00;100.00;102637.84;5215838;28;20487;-71
2022/01/30 00:19:59;;;;;;;23.38;5.63;;;;;;;6.95;100.00;102645.00;5214246;28;20034;-71
2022/01/30 00:25:07;;;;;;;21.05;4.93;;;;;;;6.90;100.00;102635.69;5215278;28;20042;-71
2022/01/30 00:27:54;;;;;;;19.88;4.97;;;;;;;6.94;100.00;102643.31;5214534;28;20053;-71
2022/01/30 00:30:26;;;;;;;25.65;6.20;;;;;;;6.88;100.00;102646.16;5215249;28;20546;-71
2022/01/30 00:32:58;;;;;;;26.15;5.38;;;;;;;6.83;100.00;102643.75;5197493;28;20033;-71
2022/01/30 00:35:30;;;;;;;29.08;6.25;;;;;;;6.86;100.00;102655.81;5213333;28;20567;-71
2022/01/30 00:38:03;;;;;;;30.95;6.47;;;;;;;6.86;100.00;102660.16;5213407;28;20040;-71
2022/01/30 00:40:34;;;;;;;20.05;5.22;;;;;;;6.83;100.00;102650.72;5215307;28;20030;-71
2022/01/30 00:43:06;;;;;;;23.58;5.63;;;;;;;6.78;100.00;102655.25;5196140;28;20388;-70
2022/01/30 00:45:37;;;;;;;24.55;5.22;;;;;;;6.75;100.00;102642.38;5213677;28;20434;-71
2022/01/30 00:48:09;;;;;;;21.40;4.18;;;;;;;6.75;100.00;102651.03;5214326;28;20057;-70
2022/01/30 00:50:40;;;;;;;19.30;4.72;;;;;;;6.67;100.00;102642.69;5210010;28;20037;-71
2022/01/30 00:53:12;;;;;;;22.63;4.78;;;;;;;6.69;100.00;102658.22;5214752;28;20501;-71
2022/01/30 00:55:44;;;;;;;23.37;5.00;;;;;;;6.61;100.00;102649.88;5214095;28;20451;-71
2022/01/30 00:58:15;;;;;;;22.80;4.85;;;;;;;6.61;100.00;102658.53;5214290;28;20037;-71
2022/01/30 01:00:46;;;;;;;23.90;4.40;;;;;;;6.52;100.00;102657.16;5211402;28;20029;-71
2022/01/30 01:03:18;;;;;;;19.48;4.40;;;;;;;6.54;100.00;102662.28;5212095;28;20391;-70
2022/01/30 01:05:50;;;;;;;25.80;5.50;;;;;;;6.52;100.00;102671.94;5195861;28;20117;-70
2022/01/30 01:08:36;;;;;;;21.25;4.97;;;;;;;6.48;100.00;102665.13;5213943;28;20518;-71
2022/01/30 01:20:55;;;;;;;20.38;5.05;;;;;;;6.43;100.00;102670.50;5177332;28;20041;-70
2022/01/30 01:25:35;;;;;;;24.60;4.97;;;;;;;6.36;100.00;102682.06;5210962;28;20501;-71
2022/01/30 01:28:06;;;;;;;25.73;5.68;;;;;;;6.33;100.00;102677.81;5213419;28;20025;-70
2022/01/30 01:30:37;;;;;;;23.33;4.65;;;;;;;6.32;100.00;102680.47;5212317;28;20060;-71
2022/01/30 01:33:10;;;;;;;28.77;6.00;;;;;;;6.30;100.00;102677.09;5195654;28;20025;-71
2022/01/30 01:35:41;;;;;;;27.90;5.13;;;;;;;6.33;100.00;102683.03;5209563;28;20041;-71
2022/01/30 01:38:14;;;;;;;27.85;5.60;;;;;;;6.31;100.00;102682.22;5195345;28;20399;-71
2022/01/30 01:40:51;;;;;;;22.50;4.90;;;;;;;6.30;100.00;102685.75;5194595;28;20030;-70
2022/01/30 01:43:24;;;;;;;23.70;5.78;;;;;;;6.30;100.00;102688.34;5212653;28;20026;-70
2022/01/30 01:45:57;;;;;;;;;;;;;;;6.72;100.00;102689.38;5213382;28;20026;-70
2022/01/30 01:48:35;;;;;;;24.15;5.10;;;;;;;6.24;100.00;102687.72;5212065;28;19921;-72
2022/01/30 01:51:14;;;;;;;21.98;5.05;;;;;;;6.13;100.00;102688.09;5212220;28;20038;-72
2022/01/30 01:53:47;;;;;;;22.90;5.20;;;;;;;6.11;100.00;102696.91;5213681;28;20128;-72
2022/01/30 01:56:19;;;;;;;24.45;4.78;;;;;;;6.08;100.00;102696.09;5212322;28;20022;-72
2022/01/30 01:58:51;;;;;;;26.25;5.90;;;;;;;6.02;100.00;102698.94;5211358;28;20045;-72
2022/01/30 02:01:24;;;;;;;22.70;5.40;;;;;;;5.99;100.00;102708.59;5213086;28;20064;-72
2022/01/30 02:03:56;;;;;;;25.75;4.90;;;;;;;5.95;100.00;102697.44;5212267;28;20120;-72
2022/01/30 02:06:28;;;;;;;27.60;5.30;;;;;;;5.95;100.00;102694.84;5212121;28;20075;-72
2022/01/30 02:09:07;;;;;;;20.48;5.13;;;;;;;5.90;100.00;102688.91;5212868;28;20064;-72
2022/01/30 02:11:43;;;;;;;24.42;5.15;;;;;;;5.90;100.00;102694.09;5213029;28;20029;-72
2022/01/30 02:14:26;;;;;;;26.75;5.28;;;;;;;5.93;100.00;102683.63;5212235;28;20036;-72
2022/01/30 02:25:41;;;;;;;31.60;6.00;;;;;;;5.81;100.00;102653.69;5212385;28;20038;-71
2022/01/30 02:28:16;;;;;;;;;;;;;;;6.30;100.00;102674.50;5205247;28;20032;-72
2022/01/30 02:31:11;;;;;;;22.75;4.80;;;;;;;5.96;100.00;102680.94;5212366;28;19914;-72
2022/01/30 02:33:43;;;;;;;24.05;4.97;;;;;;;5.93;100.00;102681.03;5211526;28;20052;-72
2022/01/30 02:36:14;;;;;;;24.33;4.77;;;;;;;5.94;100.00;102692.28;5213303;28;20030;-72
2022/01/30 02:38:45;;;;;;;22.52;5.13;;;;;;;5.87;100.00;102681.22;5212301;28;20052;-72
2022/01/30 02:41:17;;;;;;;27.88;4.65;;;;;;;5.82;100.00;102683.97;5212429;28;20030;-72
2022/01/30 02:44:03;;;;;;;20.08;5.85;;;;;;;5.73;100.00;102678.28;5211416;28;20047;-72
2022/01/30 02:46:39;;;;;;;18.23;4.10;;;;;;;5.68;100.00;102678.41;5211657;28;20057;-72
2022/01/30 02:51:59;;;;;;;21.33;5.55;;;;;;;5.58;100.00;102672.69;5212830;28;20040;-72
2022/01/30 02:54:31;;;;;;;24.42;4.28;;;;;;;5.53;100.00;102678.94;5210770;28;20113;-72
2022/01/30 02:57:03;;;;;;;22.20;4.78;;;;;;;5.46;100.00;102680.91;5211465;28;20044;-72
2022/01/30 02:59:34;;;;;;;24.15;5.10;;;;;;;5.47;100.00;102684.38;5211943;28;20029;-72
2022/01/30 03:02:05;;;;;;;23.15;4.75;;;;;;;5.43;100.00;102687.97;5210967;28;20033;-72
2022/01/30 03:04:36;;;;;;;28.45;5.45;;;;;;;5.40;100.00;102693.25;5211996;28;20030;-72
2022/01/30 03:07:08;;;;;;;19.52;5.55;;;;;;;5.37;100.00;102702.00;5209338;28;20472;-72
2022/01/30 03:09:39;;;;;;;26.17;5.55;;;;;;;5.36;100.00;102713.31;5212303;28;20030;-72
2022/01/30 03:12:11;;;;;;;17.52;4.18;;;;;;;5.30;100.00;102700.50;5211802;28;20191;-72
2022/01/30 03:14:42;;;;;;;18.88;5.00;;;;;;;5.27;100.00;102703.22;5210753;28;20033;-72
2022/01/30 03:17:13;;;;;;;19.35;4.85;;;;;;;5.28;100.00;102715.31;5195046;28;20391;-72
2022/01/30 03:19:44;;;;;;;29.02;5.80;;;;;;;5.27;100.00;102709.28;5212031;28;20116;-72
2022/01/30 03:22:16;;;;;;;27.05;4.85;;;;;;;5.24;100.00;102717.16;5211926;28;20563;-71
2022/01/30 03:24:48;;;;;;;23.48;4.00;;;;;;;5.30;100.00;102711.78;5211874;28;20052;-70
2022/01/30 03:27:19;;;;;;;23.75;5.85;;;;;;;5.40;100.00;102725.31;5210537;28;20475;-70
2022/01/30 03:30:01;;;;;;;22.17;4.25;;;;;;;5.44;100.00;102718.25;5211615;28;20038;-70
2022/01/30 03:32:34;;;;;;;20.38;4.60;;;;;;;5.55;100.00;102729.16;5211126;28;20076;-70
2022/01/30 03:35:06;;;;;;;23.55;4.70;;;;;;;5.55;100.00;102730.00;5212716;28;20408;-70
2022/01/30 03:37:37;;;;;;;20.35;4.75;;;;;;;5.53;100.00;102721.41;5208945;28;20030;-71
2022/01/30 03:40:09;;;;;;;25.17;4.72;;;;;;;5.59;100.00;102744.59;5211347;28;20072;-70
2022/01/30 03:42:41;;;;;;;29.25;5.65;;;;;;;5.61;100.00;102749.75;5210503;28;20053;-71
2022/01/30 03:45:13;;;;;;;29.20;5.70;;;;;;;5.59;100.00;102744.59;5215255;28;20523;-71
2022/01/30 03:47:44;;;;;;;24.20;4.90;;;;;;;5.65;100.00;102753.94;5195540;28;20049;-71
2022/01/30 03:50:15;;;;;;;31.20;5.47;;;;;;;5.66;100.00;102766.03;5213576;28;20024;-71
2022/01/30 03:52:46;;;;;;;22.85;4.40;;;;;;;5.68;100.00;102772.03;5216162;28;20523;-73
2022/01/30 03:55:18;;;;;;;32.08;6.70;;;;;;;5.68;100.00;102761.63;5214471;28;20089;-73
2022/01/30 03:57:49;;;;;;;22.00;5.18;;;;;;;5.67;100.00;102762.53;5215213;28;20108;-73
2022/01/30 04:00:21;;;;;;;25.13;5.40;;;;;;;5.68;100.00;102764.22;5214729;28;20028;-73
2022/01/30 04:02:53;;;;;;;25.50;5.28;;;;;;;5.68;100.00;102761.63;5214706;28;20026;-71
2022/01/30 04:05:24;;;;;;;21.58;4.93;;;;;;;5.71;100.00;102774.53;5215356;28;20030;-71
2022/01/30 04:08:00;;;;;;;22.60;4.65;;;;;;;5.81;100.00;102770.72;5214656;28;20499;-71
2022/01/30 04:10:32;;;;;;;24.98;5.15;;;;;;;5.77;100.00;102776.09;5214814;28;20491;-71
2022/01/30 04:13:04;;;;;;;26.17;4.95;;;;;;;5.81;100.00;102775.09;5215026;28;20705;-71
2022/01/30 04:15:35;;;;;;;22.33;4.53;;;;;;;5.83;100.00;102783.66;5213904;28;20021;-71
2022/01/30 04:18:07;;;;;;;22.85;5.22;;;;;;;5.82;100.00;102781.97;5215741;28;20030;-71
2022/01/30 04:20:39;;;;;;;26.98;5.82;;;;;;;5.86;100.00;102781.81;5214552;28;20545;-71
2022/01/30 04:23:10;;;;;;;23.70;4.78;;;;;;;5.88;100.00;102780.94;5213744;28;20427;-71
2022/01/30 04:25:41;;;;;;;29.73;4.95;;;;;;;5.82;100.00;102780.22;5197526;28;20034;-71
2022/01/30 04:28:13;;;;;;;29.60;5.10;;;;;;;5.88;100.00;102786.97;5214301;28;20034;-71
2022/01/30 04:30:44;;;;;;;25.48;4.45;;;;;;;5.88;100.00;102793.94;5214661;28;20065;-71
2022/01/30 04:33:16;;;;;;;21.48;4.30;;;;;;;5.91;100.00;102796.41;5214979;28;20138;-71
2022/01/30 04:35:47;;;;;;;18.92;4.45;;;;;;;5.90;100.00;102784.31;5212783;28;20033;-71
2022/01/30 04:38:29;;;;;;;30.33;5.15;;;;;;;5.95;100.00;102780.69;5214472;28;20026;-71
2022/01/30 04:57:55;;;;;;;21.42;4.68;;;;;;;6.05;100.00;102812.44;5214139;28;20041;-72
2022/01/30 05:06:04;;;;;;;22.65;4.05;;;;;;;5.91;100.00;102818.09;5211838;28;20450;-71
2022/01/30 05:08:36;;;;;;;21.35;4.97;;;;;;;5.85;100.00;102821.75;5214777;28;20033;-71
2022/01/30 05:11:08;;;;;;;19.00;3.92;;;;;;;5.82;100.00;102821.00;5213384;28;20483;-72
2022/01/30 05:13:45;;;;;;;22.52;4.55;;;;;;;5.80;100.00;102828.00;5213833;28;20468;-72
2022/01/30 05:16:19;;;;;;;21.23;4.70;;;;;;;5.75;100.00;102829.88;5213209;28;20510;-72
2022/01/30 05:18:50;;;;;;;23.98;4.70;;;;;;;5.63;100.00;102825.09;5212792;28;20029;-72
2022/01/30 05:21:22;;;;;;;21.05;4.43;;;;;;;5.64;100.00;102839.78;5196614;28;20028;-72
2022/01/30 05:23:53;;;;;;;20.10;4.10;;;;;;;5.59;100.00;102832.97;5212141;28;20389;-72
2022/01/30 05:26:26;;;;;;;25.35;4.63;;;;;;;5.56;100.00;102840.03;5214081;28;20041;-72
2022/01/30 05:28:58;;;;;;;18.57;4.27;;;;;;;5.47;100.00;102827.34;5213334;28;20038;-72
2022/01/30 05:31:29;;;;;;;26.02;5.32;;;;;;;5.44;100.00;102825.69;5214164;28;20280;-71
2022/01/30 05:34:01;;;;;;;21.23;4.55;;;;;;;5.39;100.00;102826.72;5211546;28;20061;-71
2022/01/30 05:36:32;;;;;;;18.67;4.45;;;;;;;5.30;100.00;102833.03;5213507;28;20108;-71
2022/01/30 05:39:05;;;;;;;20.92;4.10;;;;;;;5.29;100.00;102827.00;5212986;28;20041;-71
2022/01/30 05:41:36;;;;;;;18.08;4.10;;;;;;;5.30;100.00;102838.25;5214030;28;20365;-71
2022/01/30 05:44:14;;;;;;;18.90;4.32;;;;;;;5.24;100.00;102834.09;5213223;28;20041;-71
2022/01/30 05:46:53;;;;;;;18.50;4.38;;;;;;;5.24;100.00;102843.66;5212964;28;20038;-71
2022/01/30 05:49:25;;;;;;;19.88;3.40;;;;;;;5.26;100.00;102847.03;5212245;28;20048;-71
2022/01/30 05:51:56;;;;;;;16.00;4.25;;;;;;;5.23;100.00;102844.56;5212944;28;20083;-71
2022/01/30 05:54:28;;;;;;;18.65;3.78;;;;;;;5.24;100.00;102848.84;5213378;28;20034;-71
2022/01/30 05:56:59;;;;;;;21.98;3.60;;;;;;;5.23;100.00;102849.75;5212915;28;20026;-71
2022/01/30 05:59:30;;;;;;;17.75;4.35;;;;;;;5.22;100.00;102850.63;5213549;28;20060;-71
2022/01/30 06:02:02;;;;;;;19.52;3.67;;;;;;;5.23;100.00;102852.34;5212515;28;20038;-71
2022/01/30 06:04:33;;;;;;;18.08;3.67;;;;;;;5.24;100.00;102851.44;5213244;28;20033;-71
2022/01/30 06:07:06;;;;;;;16.98;3.53;;;;;;;5.21;100.00;102854.13;5210626;28;20565;-71
2022/01/30 06:09:38;;;;;;;24.63;3.63;;;;;;;5.18;100.00;102854.22;5212311;28;20022;-71
2022/01/30 06:12:10;;;;;;;21.88;3.42;;;;;;;5.14;100.00;102856.03;5212724;28;20045;-71
2022/01/30 06:14:41;;;;;;;15.88;3.45;;;;;;;5.11;100.00;102859.63;5212900;28;20495;-71
2022/01/30 06:17:15;;;;;;;19.55;3.38;;;;;;;5.19;100.00;102856.78;5211705;28;20238;-71
2022/01/30 06:19:46;;;;;;;23.23;3.65;;;;;;;5.13;100.00;102851.75;5195256;28;20029;-71
2022/01/30 06:22:17;;;;;;;16.88;3.38;;;;;;;5.16;100.00;102854.28;5212531;28;20045;-71
2022/01/30 06:24:49;;;;;;;15.73;3.67;;;;;;;5.20;100.00;102861.06;5211531;28;20029;-71
2022/01/30 06:27:20;;;;;;;18.67;3.72;;;;;;;5.22;100.00;102859.25;5212427;28;20057;-71
2022/01/30 06:29:51;;;;;;;20.52;4.30;;;;;;;5.28;100.00;102856.50;5212706;28;20442;-71
2022/01/30 06:32:23;;;;;;;22.38;4.78;;;;;;;5.38;100.00;102851.88;5211683;28;20033;-71
2022/01/30 06:34:54;;;;;;;19.85;3.80;;;;;;;5.40;100.00;102857.00;5212152;28;20061;-71
2022/01/30 06:37:25;;;;;;;18.42;3.25;;;;;;;5.44;100.00;102843.88;5213247;28;20722;-71
2022/01/30 06:39:57;;;;;;;16.85;3.58;;;;;;;5.54;100.00;102853.09;5194842;28;20029;-71
2022/01/30 06:42:32;;;;;;;19.88;4.07;;;;;;;5.57;100.00;102868.59;5211081;28;20056;-71
2022/01/30 06:45:04;;;;;;;18.83;3.55;;;;;;;5.56;100.00;102864.28;5212737;28;20034;-71
2022/01/30 06:47:42;;;;;;;15.25;3.15;;;;;;;5.61;100.00;102858.97;5192881;28;20052;-70
2022/01/30 06:50:14;;;;;;;18.45;3.40;;;;;;;5.60;100.00;102863.28;5194512;28;20042;-70
2022/01/30 06:52:46;;;;;;;14.77;3.00;;;;;;;5.60;100.00;102876.28;5212398;28;20737;-70
2022/01/30 06:55:17;;;;;;;23.35;4.25;;;;;;;5.59;100.00;102879.78;5212746;28;20034;-71
2022/01/30 06:57:48;;;;;;;14.45;3.78;;;;;;;5.58;100.00;102882.44;5211444;28;20018;-71
2022/01/30 07:00:20;;;;;;;15.45;3.35;;;;;;;5.54;100.00;102881.69;5213284;28;20034;-70
2022/01/30 07:02:51;;;;;;;21.85;4.57;;;;;;;5.50;100.00;102881.84;5211369;28;20124;-70
2022/01/30 07:05:24;;;;;;;18.42;3.97;;;;;;;5.43;100.00;102881.16;5213233;28;20040;-70
2022/01/30 07:07:55;;;;;;;19.20;4.13;;;;;;;5.43;100.00;102890.72;5210043;28;20181;-70
2022/01/30 07:10:26;;;;;;;16.80;3.47;;;;;;;5.38;100.00;102893.47;5212988;28;20022;-71
2022/01/30 07:12:57;;;;;;;17.83;4.20;;;;;;;5.35;100.00;102893.56;5194085;28;20132;-71
2022/01/30 07:15:29;;;;;;;20.80;5.05;;;;;;;5.27;100.00;102901.56;5211501;28;20041;-71
2022/01/30 07:18:00;;;;;;;15.25;3.50;;;;;;;5.27;100.00;102901.56;5193927;28;20026;-71
2022/01/30 07:20:31;;;;;;;16.48;4.00;;;;;;;5.24;100.00;102901.66;5216678;28;20022;-71
2022/01/30 07:23:03;;;;;;;20.40;3.42;;;;;;;5.20;100.00;102913.03;5198845;28;20541;-72
2022/01/30 07:25:34;;;;;;;15.48;4.00;;;;;;;5.21;100.00;102901.75;5215504;28;20434;-70
2022/01/30 07:28:05;;;;;;;17.65;4.60;;;;;;;5.20;100.00;102902.66;5214624;28;20068;-72
2022/01/30 07:30:37;;;;;;;18.08;3.70;;;;;;;5.19;100.00;102911.34;5216093;28;20029;-70
2022/01/30 07:33:08;;;;;;;19.15;3.75;;;;;;;5.21;100.00;102904.34;5214773;28;20030;-72
2022/01/30 07:35:41;;;;;;;19.90;4.15;;;;;;;5.22;100.00;102920.78;5216201;28;20022;-72
2022/01/30 07:38:13;;;;;;;17.08;3.83;;;;;;;5.19;100.00;102920.88;5214798;28;20120;-72
2022/01/30 07:40:44;;;;;;;20.88;3.88;;;;;;;5.16;100.00;102927.03;5199130;28;20103;-70
2022/01/30 07:43:16;;;;;;;17.00;3.60;;;;;;;5.05;100.00;102934.28;5197653;28;20026;-71
2022/01/30 07:45:47;;;;;;;21.13;3.92;;;;;;;5.04;100.00;102946.41;5215836;28;20483;-72
2022/01/30 07:48:19;;;;;;;16.25;3.88;;;;;;;5.02;100.00;102943.00;5214721;28;20050;-70
2022/01/30 07:50:50;;;;;;;17.55;3.47;;;;;;;5.02;100.00;102947.34;5215395;28;20026;-71
2022/01/30 07:53:21;;;;;;;17.92;3.72;;;;;;;4.99;100.00;102943.06;5214644;28;20153;-71
2022/01/30 07:55:54;;;;;;;17.05;3.47;;;;;;;4.96;100.00;102943.16;5214861;28;20423;-70
2022/01/30 07:58:25;;;;;;;16.23;3.35;;;;;;;4.93;100.00;102937.22;5215453;28;20143;-69
2022/01/30 08:00:56;;;;;;;18.73;3.70;;;;;;;4.93;100.00;102940.66;5208349;28;20038;-70
2022/01/30 08:03:28;;;;;;;21.77;4.35;;;;;;;4.91;100.00;102944.19;5194751;28;20030;-70
2022/01/30 08:05:59;;;;;;;16.73;3.42;;;;;;;4.91;100.00;102939.84;5211341;28;20038;-70
2022/01/30 08:08:30;;;;;;;15.73;3.20;;;;;;;4.91;100.00;102945.03;5214208;28;20729;-70
2022/01/30 08:11:02;;;;;;;18.90;4.18;;;;;;;4.93;100.00;102948.44;5213871;28;20057;-71
2022/01/30 08:13:33;;;;;;;20.55;4.30;;;;;;;4.94;100.00;102947.56;5215265;28;20026;-71
2022/01/30 08:16:04;;;;;;;18.08;3.58;;;;;;;4.92;100.00;102943.28;5215511;28;20475;-71
2022/01/30 08:18:37;;;;;;;19.98;3.92;;;;;;;4.96;100.00;102950.09;5196511;28;20034;-71
2022/01/30 08:21:08;;;;;;;17.43;3.53;;;;;;;4.97;100.00;102951.81;5213311;28;20049;-70
2022/01/30 08:23:39;;;;;;;22.38;4.68;;;;;;;4.98;100.00;102954.38;5214265;28;20084;-69
2022/01/30 08:26:11;;;;;;;15.85;3.78;;;;;;;5.00;100.00;102952.59;5210945;28;20072;-71
2022/01/30 08:28:42;;;;;;;22.17;4.07;;;;;;;5.02;100.00;102955.97;5203287;28;20034;-70
2022/01/30 08:31:13;;;;;;;20.75;3.60;;;;;;;5.07;100.00;102968.84;5208292;28;20799;-70
2022/01/30 08:33:45;;;;;;;20.17;3.50;;;;;;;5.10;100.00;102966.16;5214223;28;20387;-70
2022/01/30 08:36:16;;;;;;;22.10;4.05;;;;;;;5.11;100.00;102963.53;5213965;28;20013;-70
2022/01/30 08:38:47;;;;;;;22.48;3.33;;;;;;;5.17;100.00;102962.50;5213793;28;20053;-71
2022/01/30 08:41:18;;;;;;;24.08;4.30;;;;;;;5.26;100.00;102957.03;5213939;28;20038;-71
2022/01/30 08:43:50;;;;;;;19.17;4.25;;;;;;;5.34;100.00;102962.00;5212817;28;20424;-72
2022/01/30 08:46:21;;;;;;;18.17;3.80;;;;;;;5.40;100.00;102969.63;5213141;28;20033;-70
2022/01/30 08:48:52;;;;;;;20.35;3.83;;;;;;;5.45;100.00;102965.16;5214267;28;20033;-70
2022/01/30 08:51:24;;;;;;;18.45;3.60;;;;;;;5.44;100.00;102966.03;5214250;28;20454;-71
2022/01/30 08:53:55;;;;;;;17.98;3.83;;;;;;;5.51;100.00;102967.56;5212999;28;20033;-71
2022/01/30 08:56:28;;;;;;;31.35;5.15;;;;;;;5.60;100.00;102964.69;5213161;28;20396;-71
2022/01/30 08:58:59;;;;;;;15.75;3.85;;;;;;;5.63;100.00;102963.75;5213177;28;20270;-72
2022/01/30 09:01:33;;;;;;;14.52;4.00;;;;;;;5.72;100.00;102957.41;5213591;28;20570;-71
2022/01/30 09:04:04;;;;;;;21.05;4.50;;;;;;;5.70;100.00;102952.28;5213372;28;20026;-71
2022/01/30 09:06:38;;;;;;;22.95;4.35;;;;;;;5.83;100.00;102968.34;5210642;28;20426;-72
2022/01/30 09:09:09;;;;;;;22.85;4.20;;;;;;;5.87;100.00;102964.75;5194561;28;20048;-71
2022/01/30 09:11:41;;;;;;;21.67;4.78;;;;;;;5.94;100.00;102979.31;5213860;28;20025;-72
2022/01/30 09:14:12;;;;;;;18.20;4.25;;;;;;;5.98;100.00;102980.91;5212051;28;20026;-71
2022/01/30 09:16:46;;;;;;;20.92;4.82;;;;;;;6.07;100.00;102985.00;5212497;28;20049;-72
2022/01/30 09:19:18;;;;;;;23.95;5.85;;;;;;;6.04;100.00;102993.72;5212528;28;20513;-71
2022/01/30 09:21:51;;;;;;;18.95;4.68;;;;;;;6.11;100.00;103004.81;5212996;28;20076;-72
2022/01/30 09:24:22;;;;;;;24.35;4.50;;;;;;;6.16;100.00;103002.06;5213457;28;20030;-72
2022/01/30 09:26:53;;;;;;;20.90;4.13;;;;;;;6.27;100.00;103003.41;5213519;28;20022;-71
2022/01/30 09:29:26;;;;;;;24.35;4.43;;;;;;;6.32;100.00;102985.88;5190032;28;20482;-73
2022/01/30 09:31:59;;;;;;;18.58;4.85;;;;;;;6.46;100.00;103000.22;5212424;28;20069;-71
2022/01/30 09:34:30;;;;;;;20.67;4.90;;;;;;;6.54;100.00;102999.06;5211364;28;20038;-70
2022/01/30 09:37:03;;;;;;;18.63;4.32;;;;;;;6.59;100.00;103006.72;5211480;28;20037;-71
2022/01/30 09:39:34;;;;;;;21.40;4.82;;;;;;;6.69;100.00;103004.66;5194966;28;20548;-71
2022/01/30 09:42:06;;;;;;;19.48;4.28;;;;;;;6.71;100.00;103016.75;5210029;28;20033;-71
2022/01/30 09:44:40;;;;;;;21.50;4.72;;;;;;;6.70;100.00;103014.16;5212075;28;20029;-71
2022/01/30 09:47:13;;;;;;;22.35;4.15;;;;;;;6.81;100.00;103015.50;5210869;28;20069;-70
2022/01/30 09:49:49;;;;;;;24.70;4.75;;;;;;;6.91;100.00;103020.41;5209929;28;20483;-72
2022/01/30 09:52:20;;;;;;;22.92;4.90;;;;;;;6.88;100.00;103023.97;5211453;28;20064;-70
2022/01/30 09:54:52;;;;;;;21.75;4.72;;;;;;;6.92;100.00;103019.50;5211114;28;20843;-71
2022/01/30 09:57:23;;;;;;;18.13;4.07;;;;;;;6.97;100.00;103026.28;5209621;28;20022;-71
2022/01/30 09:59:56;;;;;;;22.08;4.85;;;;;;;7.02;100.00;103021.75;5211487;28;20484;-71
2022/01/30 10:02:27;;;;;;;25.60;4.53;;;;;;;7.05;100.00;103021.63;5210926;28;20033;-71
2022/01/30 10:04:59;;;;;;;21.23;4.70;;;;;;;7.04;100.00;103025.13;5212177;28;20026;-70
2022/01/30 10:07:40;;;;;;;21.05;4.53;;;;;;;7.18;100.00;103034.22;5208061;28;20038;-72
2022/01/30 10:10:19;;;;;;;23.10;4.25;;;;;;;7.20;100.00;103038.50;5209560;28;20032;-71
2022/01/30 10:13:05;;;;;;;26.33;4.80;;;;;;;7.37;100.00;103045.69;5211308;28;20038;-71
2022/01/30 10:15:57;;;;;;;23.17;4.82;;;;;;;7.45;100.00;103050.63;5210160;28;20102;-72
2022/01/30 10:18:43;;;;;;;23.75;4.18;;;;;;;7.44;100.00;103057.63;5209875;28;20401;-71
2022/01/30 10:21:20;;;;;;;25.45;4.40;;;;;;;7.44;100.00;103054.16;5207358;28;20041;-72
2022/01/30 10:23:52;;;;;;;20.58;4.57;;;;;;;7.44;100.00;103044.56;5209729;28;20097;-71
2022/01/30 10:26:31;;;;;;;19.88;4.75;;;;;;;7.63;100.00;103054.34;5211126;28;20103;-71
2022/01/30 10:29:29;;;;;;;18.25;4.28;;;;;;;7.73;100.00;103050.50;5194112;28;20038;-70
2022/01/30 10:32:10;;;;;;;18.85;4.10;;;;;;;7.76;100.00;103048.59;5206558;28;20495;-71
2022/01/30 10:34:54;;;;;;;20.63;5.10;;;;;;;7.68;100.00;103050.63;5207613;28;20041;-70
2022/01/30 10:37:26;;;;;;;22.40;5.20;;;;;;;7.74;100.00;103046.97;5209021;28;20021;-71
2022/01/30 10:40:16;;;;;;;20.90;4.53;;;;;;;7.93;100.00;103049.72;5207190;28;20076;-71
2022/01/30 10:42:50;;;;;;;22.73;5.05;;;;;;;7.90;100.00;103048.06;5209747;28;20112;-71
2022/01/30 10:45:21;;;;;;;25.40;5.40;;;;;;;7.99;100.00;103041.66;5211871;28;20419;-70
2022/01/30 10:48:23;;;;;;;21.67;5.20;;;;;;;8.21;100.00;103046.88;5193412;28;20045;-71
2022/01/30 10:50:55;;;;;;;19.63;4.53;;;;;;;8.00;100.00;103033.78;5208415;28;20327;-72
2022/01/30 10:53:26;;;;;;;22.73;4.88;;;;;;;8.07;100.00;103041.34;5203867;28;20124;-72
2022/01/30 10:55:58;;;;;;;23.90;4.53;;;;;;;8.07;100.00;103038.72;5210073;28;20037;-72
2022/01/30 10:58:29;;;;;;;24.63;5.50;;;;;;;8.07;100.00;103029.16;5210054;28;20110;-72
2022/01/30 11:01:01;;;;;;;18.63;4.00;;;;;;;8.18;100.00;103042.66;5208820;28;20084;-71
2022/01/30 11:03:41;;;;;;;21.05;5.15;;;;;;;8.25;100.00;103051.06;5209467;28;20041;-71
2022/01/30 11:06:14;;;;;;;22.90;4.60;;;;;;;8.15;100.00;103031.47;5212062;28;20048;-72
2022/01/30 11:08:48;;;;;;;19.27;4.55;;;;;;;8.07;100.00;103028.28;5212318;28;20037;-73
2022/01/30 11:17:02;;;;;;;24.02;4.57;;;;;;;7.98;100.00;103019.06;5211818;28;20385;-72
2022/01/30 11:19:39;;;;;;;22.73;5.15;;;;;;;8.05;100.00;103013.53;5209103;28;20028;-72
2022/01/30 11:22:15;;;;;;;21.35;4.68;;;;;;;8.14;100.00;103006.25;5210642;28;20121;-72
2022/01/30 11:24:54;;;;;;;20.52;4.57;;;;;;;8.13;100.00;103015.00;5209537;28;20045;-72
2022/01/30 11:27:25;;;;;;;23.15;4.43;;;;;;;8.21;100.00;103013.78;5210590;28;20034;-72
2022/01/30 11:29:59;;;;;;;23.33;4.85;;;;;;;8.27;100.00;103008.31;5210854;28;20092;-72
2022/01/30 11:32:30;;;;;;;18.40;4.50;;;;;;;8.30;100.00;103004.75;5210475;28;20427;-72
2022/01/30 11:35:02;;;;;;;20.08;4.65;;;;;;;8.32;100.00;103007.28;5210057;28;20036;-72
2022/01/30 11:37:39;;;;;;;21.00;4.60;;;;;;;8.41;100.00;103006.94;5208524;28;20026;-72
2022/01/30 11:40:16;;;;;;;25.02;4.78;;;;;;;8.45;100.00;103008.53;5210409;28;20033;-72
2022/01/30 11:42:49;;;;;;;17.75;4.05;;;;;;;8.38;100.00;103010.53;5204463;28;20577;-72
2022/01/30 11:45:27;;;;;;;22.25;5.10;;;;;;;8.44;100.00;103001.59;5188250;28;20461;-71
2022/01/30 11:48:19;;;;;;;23.17;4.82;;;;;;;8.57;100.00;102991.50;5211944;28;20060;-72
2022/01/30 11:51:02;;;;;;;17.52;3.88;;;;;;;8.60;100.00;102993.94;5211176;28;20176;-72
2022/01/30 11:53:36;;;;;;;24.00;5.28;;;;;;;8.61;100.00;102988.69;5208681;28;20077;-72
2022/01/30 11:56:08;;;;;;;24.42;4.75;;;;;;;8.60;100.00;102981.75;5210824;28;20388;-72
2022/01/30 11:58:54;;;;;;;21.52;4.07;;;;;;;8.73;100.00;102997.75;5211282;28;20025;-72
2022/01/30 12:01:25;;;;;;;23.30;4.35;;;;;;;8.76;100.00;102997.63;5209969;28;20421;-72
2022/01/30 12:03:59;;;;;;;21.20;4.70;;;;;;;8.87;100.00;102991.94;5208491;28;20042;-72
2022/01/30 12:06:32;;;;;;;15.48;4.18;;;;;;;8.87;100.00;102992.81;5212284;28;20124;-71
2022/01/30 12:09:17;;;;;;;21.25;4.63;;;;;;;9.06;100.00;102987.63;5213406;28;20125;-71
2022/01/30 12:11:48;;;;;;;23.80;4.25;;;;;;;8.94;100.00;102991.63;5214243;28;20049;-72
2022/01/30 12:14:19;;;;;;;19.40;4.10;;;;;;;8.80;100.00;102987.91;5195850;28;20475;-72
2022/01/30 12:16:56;;;;;;;31.70;4.47;;;;;;;8.65;100.00;102985.03;5213560;28;20663;-72
2022/01/30 12:19:30;;;;;;;16.02;3.63;;;;;;;8.78;100.00;102982.72;5196036;28;20292;-73
2022/01/30 12:22:26;;;;;;;18.88;3.75;;;;;;;8.95;100.00;102975.00;5211588;28;20113;-73
2022/01/30 12:25:21;;;;;;;20.85;4.15;;;;;;;9.12;100.00;102981.25;5213467;28;20026;-71
2022/01/30 12:27:57;;;;;;;18.45;3.67;;;;;;;9.03;100.00;102979.91;5209355;28;20128;-73
2022/01/30 12:30:32;;;;;;;23.15;4.47;;;;;;;9.12;100.00;102968.19;5209021;28;20033;-72
2022/01/30 12:33:33;;;;;;;20.88;4.15;;;;;;;9.54;100.00;102967.97;5211287;28;20038;-72
2022/01/30 12:41:51;;;;;;;20.30;4.78;;;;;;;9.62;100.00;102947.56;5387730;23;20416;-71
2022/01/30 12:44:29;;;;;;;18.33;4.10;;;;;;;9.74;100.00;102927.81;5224385;28;20029;-72
2022/01/30 12:47:00;;;;;;;19.08;3.90;;;;;;;9.61;100.00;102930.16;5219973;28;20403;-72